sensor_id;sensor_type;location;lat;lon;timestamp;temperature;humidity
2565;DHT22;1292;48.020;7.822;2023-06-10T05:47:58;19.40;99.90
2565;DHT22;1292;48.020;7.822;2023-06-10T05:50:25;19.50;99.90
2565;DHT22;1292;48.020;7.822;2023-06-10T05:52:52;19.60;99.90
2565;DHT22;1292;48.020;7.822;2023-06-10T05:55:20;19.70;99.90
2565;DHT22;1292;48.020;7.822;2023-06-10T05:57:47;19.80;99.90
2565;DHT22;1292;48.020;7.822;2023-06-10T06:00:14;19.90;99.90
2565;DHT22;1292;48.020;7.822;2023-06-10T06:02:41;20.00;99.90
2565;DHT22;1292;48.020;7.822;2023-06-10T06:05:10;20.00;99.90
2565;DHT22;1292;48.020;7.822;2023-06-10T06:07:36;20.10;99.90
2565;DHT22;1292;48.020;7.822;2023-06-10T06:10:04;20.20;99.90
2565;DHT22;1292;48.020;7.822;2023-06-10T06:12:31;20.30;99.90
2565;DHT22;1292;48.020;7.822;2023-06-10T06:14:58;20.40;99.90
2565;DHT22;1292;48.020;7.822;2023-06-10T06:17:24;20.40;99.90
2565;DHT22;1292;48.020;7.822;2023-06-10T06:19:51;20.50;99.90
2565;DHT22;1292;48.020;7.822;2023-06-10T06:22:19;20.60;99.90
2565;DHT22;1292;48.020;7.822;2023-06-10T06:24:47;20.60;99.90
2565;DHT22;1292;48.020;7.822;2023-06-10T06:27:15;20.70;99.90
2565;DHT22;1292;48.020;7.822;2023-06-10T06:29:41;20.80;99.90
2565;DHT22;1292;48.020;7.822;2023-06-10T06:32:08;20.90;99.90
2565;DHT22;1292;48.020;7.822;2023-06-10T06:34:35;20.90;99.90
2565;DHT22;1292;48.020;7.822;2023-06-10T06:37:02;20.90;99.90
2565;DHT22;1292;48.020;7.822;2023-06-10T06:39:30;20.90;99.90
2565;DHT22;1292;48.020;7.822;2023-06-10T06:41:57;20.90;99.90
2565;DHT22;1292;48.020;7.822;2023-06-10T06:44:24;20.80;99.90
2565;DHT22;1292;48.020;7.822;2023-06-10T06:46:51;20.90;99.90
2565;DHT22;1292;48.020;7.822;2023-06-10T06:49:18;21.00;99.90
2565;DHT22;1292;48.020;7.822;2023-06-10T06:51:44;21.00;99.90
2565;DHT22;1292;48.020;7.822;2023-06-10T06:54:11;21.00;99.90
2565;DHT22;1292;48.020;7.822;2023-06-10T06:56:39;21.20;99.90
2565;DHT22;1292;48.020;7.822;2023-06-10T06:59:06;21.20;99.90
2565;DHT22;1292;48.020;7.822;2023-06-10T07:01:33;21.30;99.90
2565;DHT22;1292;48.020;7.822;2023-06-10T07:04:00;21.30;99.90
2565;DHT22;1292;48.020;7.822;2023-06-10T07:06:26;21.30;99.90
2565;DHT22;1292;48.020;7.822;2023-06-10T07:08:53;21.20;99.90
2565;DHT22;1292;48.020;7.822;2023-06-10T07:11:20;21.30;99.90
2565;DHT22;1292;48.020;7.822;2023-06-10T07:13:48;21.50;99.90
2565;DHT22;1292;48.020;7.822;2023-06-10T07:16:15;21.60;99.90
2565;DHT22;1292;48.020;7.822;2023-06-10T07:18:42;21.60;99.90
2565;DHT22;1292;48.020;7.822;2023-06-10T07:21:09;21.60;99.90
2565;DHT22;1292;48.020;7.822;2023-06-10T07:23:36;21.50;99.90
2565;DHT22;1292;48.020;7.822;2023-06-10T07:26:03;21.70;99.90
2565;DHT22;1292;48.020;7.822;2023-06-10T07:28:30;21.80;99.90
2565;DHT22;1292;48.020;7.822;2023-06-10T07:30:58;21.80;99.90
2565;DHT22;1292;48.020;7.822;2023-06-10T07:33:25;21.80;99.90
2565;DHT22;1292;48.020;7.822;2023-06-10T07:35:52;21.90;99.90
2565;DHT22;1292;48.020;7.822;2023-06-10T07:38:19;22.00;99.90
2565;DHT22;1292;48.020;7.822;2023-06-10T07:40:46;21.90;99.90
2565;DHT22;1292;48.020;7.822;2023-06-10T07:43:13;22.00;99.90
2565;DHT22;1292;48.020;7.822;2023-06-10T07:45:40;22.00;99.90
2565;DHT22;1292;48.020;7.822;2023-06-10T07:48:08;22.00;99.90
2565;DHT22;1292;48.020;7.822;2023-06-10T07:50:35;22.10;99.90
2565;DHT22;1292;48.020;7.822;2023-06-10T07:53:02;22.20;99.90
2565;DHT22;1292;48.020;7.822;2023-06-10T07:55:29;22.30;99.90
2565;DHT22;1292;48.020;7.822;2023-06-10T07:57:56;22.30;99.90
2565;DHT22;1292;48.020;7.822;2023-06-10T08:00:23;22.40;99.90
2565;DHT22;1292;48.020;7.822;2023-06-10T08:02:50;22.50;99.90
2565;DHT22;1292;48.020;7.822;2023-06-10T08:05:19;22.50;99.90
2565;DHT22;1292;48.020;7.822;2023-06-10T08:07:47;22.60;99.90
2565;DHT22;1292;48.020;7.822;2023-06-10T08:10:13;22.70;99.90
2565;DHT22;1292;48.020;7.822;2023-06-10T08:12:40;22.80;99.90
2565;DHT22;1292;48.020;7.822;2023-06-10T08:15:08;22.80;99.90
2565;DHT22;1292;48.020;7.822;2023-06-10T08:17:35;22.90;99.90
2565;DHT22;1292;48.020;7.822;2023-06-10T08:20:02;23.00;99.90
2565;DHT22;1292;48.020;7.822;2023-06-10T08:22:30;23.00;99.90
2565;DHT22;1292;48.020;7.822;2023-06-10T08:24:57;23.10;99.90
2565;DHT22;1292;48.020;7.822;2023-06-10T08:27:24;23.10;99.90
2565;DHT22;1292;48.020;7.822;2023-06-10T08:29:50;23.10;99.90
2565;DHT22;1292;48.020;7.822;2023-06-10T08:32:17;23.10;99.90
2565;DHT22;1292;48.020;7.822;2023-06-10T08:34:44;23.20;99.90
2565;DHT22;1292;48.020;7.822;2023-06-10T08:37:11;23.40;99.90
2565;DHT22;1292;48.020;7.822;2023-06-10T08:39:39;23.40;99.90
2565;DHT22;1292;48.020;7.822;2023-06-10T08:42:12;23.50;99.90
2565;DHT22;1292;48.020;7.822;2023-06-10T08:44:42;23.60;99.90
2565;DHT22;1292;48.020;7.822;2023-06-10T08:47:13;23.60;99.90
2565;DHT22;1292;48.020;7.822;2023-06-10T08:49:43;23.70;99.90
2565;DHT22;1292;48.020;7.822;2023-06-10T08:52:14;23.90;99.90
2565;DHT22;1292;48.020;7.822;2023-06-10T08:54:49;23.90;99.90
2565;DHT22;1292;48.020;7.822;2023-06-10T08:57:18;24.00;99.90
2565;DHT22;1292;48.020;7.822;2023-06-10T08:59:47;24.20;99.90
2565;DHT22;1292;48.020;7.822;2023-06-10T09:02:15;24.20;99.90
2565;DHT22;1292;48.020;7.822;2023-06-10T09:04:46;24.40;99.90
2565;DHT22;1292;48.020;7.822;2023-06-10T09:07:13;24.50;99.90
2565;DHT22;1292;48.020;7.822;2023-06-10T09:09:44;24.50;99.90
2565;DHT22;1292;48.020;7.822;2023-06-10T09:12:12;24.50;99.90
2565;DHT22;1292;48.020;7.822;2023-06-10T09:14:39;24.60;99.90
2565;DHT22;1292;48.020;7.822;2023-06-10T09:17:06;24.70;99.90
2565;DHT22;1292;48.020;7.822;2023-06-10T09:19:33;24.80;99.90
2565;DHT22;1292;48.020;7.822;2023-06-10T09:22:01;24.90;99.90
2565;DHT22;1292;48.020;7.822;2023-06-10T09:24:29;25.00;99.90
2565;DHT22;1292;48.020;7.822;2023-06-10T09:27:04;25.10;99.90
2565;DHT22;1292;48.020;7.822;2023-06-10T09:29:32;25.00;99.90
2565;DHT22;1292;48.020;7.822;2023-06-10T09:31:58;24.90;99.90
2565;DHT22;1292;48.020;7.822;2023-06-10T09:34:26;25.10;99.90
2565;DHT22;1292;48.020;7.822;2023-06-10T09:36:53;25.10;99.90
2565;DHT22;1292;48.020;7.822;2023-06-10T09:39:21;25.30;99.90
2565;DHT22;1292;48.020;7.822;2023-06-10T09:41:48;25.40;99.90
2565;DHT22;1292;48.020;7.822;2023-06-10T09:44:18;25.60;99.90
2565;DHT22;1292;48.020;7.822;2023-06-10T09:46:46;25.50;99.90
2565;DHT22;1292;48.020;7.822;2023-06-10T09:49:13;25.50;99.90
2565;DHT22;1292;48.020;7.822;2023-06-10T09:51:49;25.70;99.90
2565;DHT22;1292;48.020;7.822;2023-06-10T09:54:17;25.70;99.90
2565;DHT22;1292;48.020;7.822;2023-06-10T09:56:47;25.80;99.90
2565;DHT22;1292;48.020;7.822;2023-06-10T09:59:13;26.10;99.90
2565;DHT22;1292;48.020;7.822;2023-06-10T10:01:42;26.10;99.90
2565;DHT22;1292;48.020;7.822;2023-06-10T10:04:09;26.20;99.90
2565;DHT22;1292;48.020;7.822;2023-06-10T10:06:36;26.30;99.90
2565;DHT22;1292;48.020;7.822;2023-06-10T10:09:03;26.50;99.90
2565;DHT22;1292;48.020;7.822;2023-06-10T10:11:32;26.20;99.90
2565;DHT22;1292;48.020;7.822;2023-06-10T10:14:00;26.30;99.90
2565;DHT22;1292;48.020;7.822;2023-06-10T10:16:33;26.30;99.90
2565;DHT22;1292;48.020;7.822;2023-06-10T10:19:08;26.20;99.90
2565;DHT22;1292;48.020;7.822;2023-06-10T10:21:43;26.30;99.90
2565;DHT22;1292;48.020;7.822;2023-06-10T10:24:15;26.30;99.90
2565;DHT22;1292;48.020;7.822;2023-06-10T10:26:43;26.50;99.90
2565;DHT22;1292;48.020;7.822;2023-06-10T10:29:23;26.80;99.90
2565;DHT22;1292;48.020;7.822;2023-06-10T10:31:51;27.00;99.90
2565;DHT22;1292;48.020;7.822;2023-06-10T10:34:24;27.10;99.90
2565;DHT22;1292;48.020;7.822;2023-06-10T10:36:51;27.00;99.90
2565;DHT22;1292;48.020;7.822;2023-06-10T10:39:19;26.90;99.90
2565;DHT22;1292;48.020;7.822;2023-06-10T10:41:46;27.00;99.90
2565;DHT22;1292;48.020;7.822;2023-06-10T10:44:14;27.10;99.90
2565;DHT22;1292;48.020;7.822;2023-06-10T10:46:46;27.20;99.90
2565;DHT22;1292;48.020;7.822;2023-06-10T10:49:15;27.20;99.90
2565;DHT22;1292;48.020;7.822;2023-06-10T10:51:56;27.40;99.90
2565;DHT22;1292;48.020;7.822;2023-06-10T10:54:30;27.70;99.90
2565;DHT22;1292;48.020;7.822;2023-06-10T10:57:17;27.80;99.90
2565;DHT22;1292;48.020;7.822;2023-06-10T10:59:46;27.90;99.90
2565;DHT22;1292;48.020;7.822;2023-06-10T11:02:16;27.80;99.90
2565;DHT22;1292;48.020;7.822;2023-06-10T11:04:45;28.00;99.90
2565;DHT22;1292;48.020;7.822;2023-06-10T11:07:14;28.10;99.90
2565;DHT22;1292;48.020;7.822;2023-06-10T11:09:57;28.20;99.90
2565;DHT22;1292;48.020;7.822;2023-06-10T11:12:24;28.20;99.90
2565;DHT22;1292;48.020;7.822;2023-06-10T11:14:54;28.30;99.90
2565;DHT22;1292;48.020;7.822;2023-06-10T11:17:22;28.30;99.90
2565;DHT22;1292;48.020;7.822;2023-06-10T11:19:49;28.40;99.90
2565;DHT22;1292;48.020;7.822;2023-06-10T11:22:18;28.50;99.90
2565;DHT22;1292;48.020;7.822;2023-06-10T11:24:49;28.60;99.90
2565;DHT22;1292;48.020;7.822;2023-06-10T11:27:17;28.60;99.90
2565;DHT22;1292;48.020;7.822;2023-06-10T11:29:58;28.50;99.90
2565;DHT22;1292;48.020;7.822;2023-06-10T11:32:29;28.20;99.90
2565;DHT22;1292;48.020;7.822;2023-06-10T11:34:57;28.10;99.90
2565;DHT22;1292;48.020;7.822;2023-06-10T11:37:25;28.00;99.90
2565;DHT22;1292;48.020;7.822;2023-06-10T11:39:53;28.00;99.90
2565;DHT22;1292;48.020;7.822;2023-06-10T11:42:21;28.00;99.90
2565;DHT22;1292;48.020;7.822;2023-06-10T11:44:49;28.00;99.90
2565;DHT22;1292;48.020;7.822;2023-06-10T11:47:16;28.00;99.90
2565;DHT22;1292;48.020;7.822;2023-06-10T11:49:43;28.10;99.90
2565;DHT22;1292;48.020;7.822;2023-06-10T11:52:10;28.20;99.90
2565;DHT22;1292;48.020;7.822;2023-06-10T11:54:39;28.30;99.90
2565;DHT22;1292;48.020;7.822;2023-06-10T11:57:06;28.50;99.90
2565;DHT22;1292;48.020;7.822;2023-06-10T11:59:34;28.80;99.90
2565;DHT22;1292;48.020;7.822;2023-06-10T12:02:01;28.90;99.90
2565;DHT22;1292;48.020;7.822;2023-06-10T12:04:28;29.00;99.90
2565;DHT22;1292;48.020;7.822;2023-06-10T12:06:55;29.10;99.90
2565;DHT22;1292;48.020;7.822;2023-06-10T12:09:23;29.10;99.90
2565;DHT22;1292;48.020;7.822;2023-06-10T12:11:54;29.10;99.90
2565;DHT22;1292;48.020;7.822;2023-06-10T12:14:49;29.00;99.90
2565;DHT22;1292;48.020;7.822;2023-06-10T12:17:16;29.00;99.90
2565;DHT22;1292;48.020;7.822;2023-06-10T12:19:47;29.00;99.90
2565;DHT22;1292;48.020;7.822;2023-06-10T12:22:15;29.10;99.90
2565;DHT22;1292;48.020;7.822;2023-06-10T12:24:45;29.10;99.90
2565;DHT22;1292;48.020;7.822;2023-06-10T12:27:14;29.10;99.90
2565;DHT22;1292;48.020;7.822;2023-06-10T12:29:51;28.90;99.90
2565;DHT22;1292;48.020;7.822;2023-06-10T12:32:19;28.90;99.90
2565;DHT22;1292;48.020;7.822;2023-06-10T12:34:48;28.80;99.90
2565;DHT22;1292;48.020;7.822;2023-06-10T12:37:16;28.70;99.90
2565;DHT22;1292;48.020;7.822;2023-06-10T12:39:51;28.70;99.90
2565;DHT22;1292;48.020;7.822;2023-06-10T12:42:21;28.60;99.90
2565;DHT22;1292;48.020;7.822;2023-06-10T12:44:53;28.60;99.90
2565;DHT22;1292;48.020;7.822;2023-06-10T12:47:20;28.60;99.90
2565;DHT22;1292;48.020;7.822;2023-06-10T12:49:57;28.60;99.90
2565;DHT22;1292;48.020;7.822;2023-06-10T12:52:24;28.60;99.90
2565;DHT22;1292;48.020;7.822;2023-06-10T12:54:50;28.60;99.90
2565;DHT22;1292;48.020;7.822;2023-06-10T12:57:19;28.50;99.90
2565;DHT22;1292;48.020;7.822;2023-06-10T12:59:46;28.30;99.90
2565;DHT22;1292;48.020;7.822;2023-06-10T13:02:18;28.30;99.90
2565;DHT22;1292;48.020;7.822;2023-06-10T13:04:45;28.40;99.90
2565;DHT22;1292;48.020;7.822;2023-06-10T13:07:12;28.50;99.90
2565;DHT22;1292;48.020;7.822;2023-06-10T13:09:38;28.60;99.90
2565;DHT22;1292;48.020;7.822;2023-06-10T13:12:06;28.60;99.90
2565;DHT22;1292;48.020;7.822;2023-06-10T13:14:37;28.60;99.90
2565;DHT22;1292;48.020;7.822;2023-06-10T13:17:04;28.60;99.90
2565;DHT22;1292;48.020;7.822;2023-06-10T13:19:32;28.60;99.90
2565;DHT22;1292;48.020;7.822;2023-06-10T13:21:59;28.70;99.90
2565;DHT22;1292;48.020;7.822;2023-06-10T13:24:25;28.60;99.90
2565;DHT22;1292;48.020;7.822;2023-06-10T13:26:52;28.60;99.90
2565;DHT22;1292;48.020;7.822;2023-06-10T13:29:20;28.50;99.90
2565;DHT22;1292;48.020;7.822;2023-06-10T13:31:48;28.20;99.90
2565;DHT22;1292;48.020;7.822;2023-06-10T13:34:15;28.10;99.90
2565;DHT22;1292;48.020;7.822;2023-06-10T13:36:42;28.00;99.90
2565;DHT22;1292;48.020;7.822;2023-06-10T13:39:09;27.70;99.90
2565;DHT22;1292;48.020;7.822;2023-06-10T13:41:35;27.50;99.90
2565;DHT22;1292;48.020;7.822;2023-06-10T13:44:02;27.40;99.90
2565;DHT22;1292;48.020;7.822;2023-06-10T13:46:29;27.30;99.90
2565;DHT22;1292;48.020;7.822;2023-06-10T13:48:57;27.30;99.90
2565;DHT22;1292;48.020;7.822;2023-06-10T13:51:24;27.20;99.90
2565;DHT22;1292;48.020;7.822;2023-06-10T13:53:51;27.30;99.90
2565;DHT22;1292;48.020;7.822;2023-06-10T13:56:18;27.30;99.90
2565;DHT22;1292;48.020;7.822;2023-06-10T13:58:45;27.20;99.90
2565;DHT22;1292;48.020;7.822;2023-06-10T14:01:12;27.30;99.90
2565;DHT22;1292;48.020;7.822;2023-06-10T14:03:39;27.40;99.90
2565;DHT22;1292;48.020;7.822;2023-06-10T14:06:07;27.60;99.90
2565;DHT22;1292;48.020;7.822;2023-06-10T14:08:34;27.60;99.90
2565;DHT22;1292;48.020;7.822;2023-06-10T14:11:01;27.60;99.90
2565;DHT22;1292;48.020;7.822;2023-06-10T14:13:28;27.80;99.90
2565;DHT22;1292;48.020;7.822;2023-06-10T14:15:55;27.90;99.90
2565;DHT22;1292;48.020;7.822;2023-06-10T14:18:23;28.00;99.90
2565;DHT22;1292;48.020;7.822;2023-06-10T14:20:50;28.10;99.90
2565;DHT22;1292;48.020;7.822;2023-06-10T14:23:18;28.20;99.90
2565;DHT22;1292;48.020;7.822;2023-06-10T14:25:45;28.20;99.90
2565;DHT22;1292;48.020;7.822;2023-06-10T14:28:11;28.10;99.90
2565;DHT22;1292;48.020;7.822;2023-06-10T14:30:38;28.10;99.90
2565;DHT22;1292;48.020;7.822;2023-06-10T14:33:05;28.10;99.90
2565;DHT22;1292;48.020;7.822;2023-06-10T14:35:32;28.00;99.90
2565;DHT22;1292;48.020;7.822;2023-06-10T14:37:59;27.90;99.90
2565;DHT22;1292;48.020;7.822;2023-06-10T14:40:27;27.90;99.90
2565;DHT22;1292;48.020;7.822;2023-06-10T14:42:54;27.90;99.90
2565;DHT22;1292;48.020;7.822;2023-06-10T14:45:21;27.90;99.90
2565;DHT22;1292;48.020;7.822;2023-06-10T14:47:48;27.90;99.90
2565;DHT22;1292;48.020;7.822;2023-06-10T14:50:15;27.90;99.90
2565;DHT22;1292;48.020;7.822;2023-06-10T14:52:41;27.80;99.90
2565;DHT22;1292;48.020;7.822;2023-06-10T14:55:09;27.80;99.90
2565;DHT22;1292;48.020;7.822;2023-06-10T14:57:37;27.80;99.90
2565;DHT22;1292;48.020;7.822;2023-06-10T15:00:05;27.80;99.90
2565;DHT22;1292;48.020;7.822;2023-06-10T15:02:32;27.90;99.90
2565;DHT22;1292;48.020;7.822;2023-06-10T15:04:58;28.00;99.90
2565;DHT22;1292;48.020;7.822;2023-06-10T15:07:25;28.30;99.90
2565;DHT22;1292;48.020;7.822;2023-06-10T15:09:52;28.50;99.90
2565;DHT22;1292;48.020;7.822;2023-06-10T15:12:19;28.60;99.90
2565;DHT22;1292;48.020;7.822;2023-06-10T15:14:47;28.80;99.90
2565;DHT22;1292;48.020;7.822;2023-06-10T15:17:14;28.90;99.90
2565;DHT22;1292;48.020;7.822;2023-06-10T15:19:41;29.00;99.90
2565;DHT22;1292;48.020;7.822;2023-06-10T15:22:08;28.90;99.90
2565;DHT22;1292;48.020;7.822;2023-06-10T15:24:37;28.70;99.90
2565;DHT22;1292;48.020;7.822;2023-06-10T15:27:04;28.60;99.90
2565;DHT22;1292;48.020;7.822;2023-06-10T15:29:32;28.50;99.90
2565;DHT22;1292;48.020;7.822;2023-06-10T15:32:00;28.50;99.90
2565;DHT22;1292;48.020;7.822;2023-06-10T15:34:27;28.40;99.90
2565;DHT22;1292;48.020;7.822;2023-06-10T15:36:54;28.30;99.90
2565;DHT22;1292;48.020;7.822;2023-06-10T15:39:20;28.30;99.90
2565;DHT22;1292;48.020;7.822;2023-06-10T15:41:47;28.20;99.90
2565;DHT22;1292;48.020;7.822;2023-06-10T15:44:14;28.20;99.90
2565;DHT22;1292;48.020;7.822;2023-06-10T15:46:41;28.20;99.90
2565;DHT22;1292;48.020;7.822;2023-06-10T15:49:09;28.20;99.90
2565;DHT22;1292;48.020;7.822;2023-06-10T15:51:36;28.20;99.90
2565;DHT22;1292;48.020;7.822;2023-06-10T15:54:03;28.20;99.90
2565;DHT22;1292;48.020;7.822;2023-06-10T15:56:29;28.10;99.90
2565;DHT22;1292;48.020;7.822;2023-06-10T15:58:56;28.20;99.90
2565;DHT22;1292;48.020;7.822;2023-06-10T16:01:23;28.40;99.90
2565;DHT22;1292;48.020;7.822;2023-06-10T16:03:50;28.60;99.90
2565;DHT22;1292;48.020;7.822;2023-06-10T16:06:18;28.80;99.90
2565;DHT22;1292;48.020;7.822;2023-06-10T16:08:45;29.00;99.90
2565;DHT22;1292;48.020;7.822;2023-06-10T16:11:12;29.00;99.90
2565;DHT22;1292;48.020;7.822;2023-06-10T16:13:39;28.70;99.90
2565;DHT22;1292;48.020;7.822;2023-06-10T16:16:07;28.70;99.90
2565;DHT22;1292;48.020;7.822;2023-06-10T16:18:34;28.50;99.90
2565;DHT22;1292;48.020;7.822;2023-06-10T16:21:00;28.40;99.90
2565;DHT22;1292;48.020;7.822;2023-06-10T16:23:28;28.40;99.90
2565;DHT22;1292;48.020;7.822;2023-06-10T16:25:55;28.40;99.90
2565;DHT22;1292;48.020;7.822;2023-06-10T16:28:22;28.40;99.90
2565;DHT22;1292;48.020;7.822;2023-06-10T16:30:49;28.20;99.90
2565;DHT22;1292;48.020;7.822;2023-06-10T16:33:16;28.20;99.90
2565;DHT22;1292;48.020;7.822;2023-06-10T16:35:43;28.20;99.90
2565;DHT22;1292;48.020;7.822;2023-06-10T16:38:10;28.10;99.90
2565;DHT22;1292;48.020;7.822;2023-06-10T16:40:38;27.90;99.90
2565;DHT22;1292;48.020;7.822;2023-06-10T16:43:05;27.90;99.90
2565;DHT22;1292;48.020;7.822;2023-06-10T16:45:31;27.60;99.90
2565;DHT22;1292;48.020;7.822;2023-06-10T16:47:58;27.50;99.90
2565;DHT22;1292;48.020;7.822;2023-06-10T16:50:25;27.50;99.90
2565;DHT22;1292;48.020;7.822;2023-06-10T16:52:52;27.50;99.90
2565;DHT22;1292;48.020;7.822;2023-06-10T16:55:18;27.70;99.90
2565;DHT22;1292;48.020;7.822;2023-06-10T16:57:47;27.70;99.90
2565;DHT22;1292;48.020;7.822;2023-06-10T17:00:14;27.80;99.90
2565;DHT22;1292;48.020;7.822;2023-06-10T17:02:42;27.90;99.90
2565;DHT22;1292;48.020;7.822;2023-06-10T17:05:09;27.90;99.90
2565;DHT22;1292;48.020;7.822;2023-06-10T17:07:36;27.90;99.90
2565;DHT22;1292;48.020;7.822;2023-06-10T17:10:03;28.00;99.90
2565;DHT22;1292;48.020;7.822;2023-06-10T17:12:30;28.00;99.90
2565;DHT22;1292;48.020;7.822;2023-06-10T17:14:58;28.10;99.90
2565;DHT22;1292;48.020;7.822;2023-06-10T17:17:25;28.20;99.90
2565;DHT22;1292;48.020;7.822;2023-06-10T17:19:51;28.30;99.90
2565;DHT22;1292;48.020;7.822;2023-06-10T17:22:18;28.40;99.90
2565;DHT22;1292;48.020;7.822;2023-06-10T17:24:45;28.40;99.90
2565;DHT22;1292;48.020;7.822;2023-06-10T17:27:12;28.50;99.90
2565;DHT22;1292;48.020;7.822;2023-06-10T17:29:39;28.40;99.90
2565;DHT22;1292;48.020;7.822;2023-06-10T17:32:08;28.40;99.90
2565;DHT22;1292;48.020;7.822;2023-06-10T17:34:34;28.50;99.90
2565;DHT22;1292;48.020;7.822;2023-06-10T17:37:01;28.50;99.90
2565;DHT22;1292;48.020;7.822;2023-06-10T17:39:28;28.30;99.90
2565;DHT22;1292;48.020;7.822;2023-06-10T17:41:55;28.30;99.90
2565;DHT22;1292;48.020;7.822;2023-06-10T17:44:22;28.40;99.90
2565;DHT22;1292;48.020;7.822;2023-06-10T17:46:50;28.40;99.90
2565;DHT22;1292;48.020;7.822;2023-06-10T17:49:19;28.40;99.90
2565;DHT22;1292;48.020;7.822;2023-06-10T17:51:46;28.10;99.90
2565;DHT22;1292;48.020;7.822;2023-06-10T17:54:13;28.10;99.90
2565;DHT22;1292;48.020;7.822;2023-06-10T17:56:39;28.10;99.90
2565;DHT22;1292;48.020;7.822;2023-06-10T17:59:06;28.00;99.90
2565;DHT22;1292;48.020;7.822;2023-06-10T18:01:33;28.00;99.90
2565;DHT22;1292;48.020;7.822;2023-06-10T18:04:03;28.00;99.90
2565;DHT22;1292;48.020;7.822;2023-06-10T18:06:32;27.80;99.90
2565;DHT22;1292;48.020;7.822;2023-06-10T18:08:59;27.80;99.90
2565;DHT22;1292;48.020;7.822;2023-06-10T18:11:26;27.80;99.90
2565;DHT22;1292;48.020;7.822;2023-06-10T18:13:53;27.80;99.90
2565;DHT22;1292;48.020;7.822;2023-06-10T18:16:20;27.80;99.90
2565;DHT22;1292;48.020;7.822;2023-06-10T18:18:47;27.80;99.90
2565;DHT22;1292;48.020;7.822;2023-06-10T18:21:14;27.80;99.90
2565;DHT22;1292;48.020;7.822;2023-06-10T18:23:42;27.80;99.90
2565;DHT22;1292;48.020;7.822;2023-06-10T18:26:09;27.80;99.90
2565;DHT22;1292;48.020;7.822;2023-06-10T18:28:36;27.80;99.90
2565;DHT22;1292;48.020;7.822;2023-06-10T18:31:03;27.80;99.90
2565;DHT22;1292;48.020;7.822;2023-06-10T18:33:30;27.80;99.90
2565;DHT22;1292;48.020;7.822;2023-06-10T18:35:57;27.80;99.90
2565;DHT22;1292;48.020;7.822;2023-06-10T18:38:24;27.70;99.90
2565;DHT22;1292;48.020;7.822;2023-06-10T18:40:52;27.60;99.90
2565;DHT22;1292;48.020;7.822;2023-06-10T18:43:18;27.60;99.90
2565;DHT22;1292;48.020;7.822;2023-06-10T18:45:45;27.50;99.90
2565;DHT22;1292;48.020;7.822;2023-06-10T18:48:12;27.40;99.90
2565;DHT22;1292;48.020;7.822;2023-06-10T18:50:39;27.30;99.90
2565;DHT22;1292;48.020;7.822;2023-06-10T18:53:06;27.20;99.90
2565;DHT22;1292;48.020;7.822;2023-06-10T18:55:32;27.10;99.90
2565;DHT22;1292;48.020;7.822;2023-06-10T18:58:02;27.10;99.90
2565;DHT22;1292;48.020;7.822;2023-06-10T19:00:29;27.00;99.90
2565;DHT22;1292;48.020;7.822;2023-06-10T19:02:57;26.90;99.90
2565;DHT22;1292;48.020;7.822;2023-06-10T19:05:23;26.70;99.90
2565;DHT22;1292;48.020;7.822;2023-06-10T19:07:50;26.60;99.90
2565;DHT22;1292;48.020;7.822;2023-06-10T19:10:17;26.40;99.90
2565;DHT22;1292;48.020;7.822;2023-06-10T19:12:45;26.30;99.90
2565;DHT22;1292;48.020;7.822;2023-06-10T19:15:14;26.30;99.90
2565;DHT22;1292;48.020;7.822;2023-06-10T19:17:41;26.10;99.90
2565;DHT22;1292;48.020;7.822;2023-06-10T19:20:08;26.00;99.90
2565;DHT22;1292;48.020;7.822;2023-06-10T19:22:35;26.00;99.90
2565;DHT22;1292;48.020;7.822;2023-06-10T19:25:04;25.90;99.90
2565;DHT22;1292;48.020;7.822;2023-06-10T19:27:31;25.80;99.90
2565;DHT22;1292;48.020;7.822;2023-06-10T19:29:59;25.70;99.90
2565;DHT22;1292;48.020;7.822;2023-06-10T19:32:28;25.70;99.90
2565;DHT22;1292;48.020;7.822;2023-06-10T19:34:55;25.70;99.90
2565;DHT22;1292;48.020;7.822;2023-06-10T19:37:21;25.60;99.90
2565;DHT22;1292;48.020;7.822;2023-06-10T19:39:48;25.60;99.90
2565;DHT22;1292;48.020;7.822;2023-06-10T19:42:15;25.60;99.90
2565;DHT22;1292;48.020;7.822;2023-06-10T19:44:42;25.50;99.90
2565;DHT22;1292;48.020;7.822;2023-06-10T19:47:08;25.60;99.90
2565;DHT22;1292;48.020;7.822;2023-06-10T19:49:37;25.40;99.90
2565;DHT22;1292;48.020;7.822;2023-06-10T19:52:04;25.40;99.90
2565;DHT22;1292;48.020;7.822;2023-06-10T19:54:32;25.30;99.90
2565;DHT22;1292;48.020;7.822;2023-06-10T19:56:59;25.30;99.90
2565;DHT22;1292;48.020;7.822;2023-06-10T19:59:27;25.30;99.90
2565;DHT22;1292;48.020;7.822;2023-06-10T20:01:54;25.30;99.90
2565;DHT22;1292;48.020;7.822;2023-06-10T20:04:20;25.20;99.90
2565;DHT22;1292;48.020;7.822;2023-06-10T20:06:49;25.20;99.90
2565;DHT22;1292;48.020;7.822;2023-06-10T20:09:15;25.20;99.90
2565;DHT22;1292;48.020;7.822;2023-06-10T20:11:42;25.10;99.90
2565;DHT22;1292;48.020;7.822;2023-06-10T20:14:10;25.00;99.90
2565;DHT22;1292;48.020;7.822;2023-06-10T20:16:36;25.00;99.90
2565;DHT22;1292;48.020;7.822;2023-06-10T20:19:03;24.90;99.90
2565;DHT22;1292;48.020;7.822;2023-06-10T20:21:30;24.90;99.90
2565;DHT22;1292;48.020;7.822;2023-06-10T20:23:58;24.80;99.90
2565;DHT22;1292;48.020;7.822;2023-06-10T20:26:25;24.80;99.90
2565;DHT22;1292;48.020;7.822;2023-06-10T20:28:52;24.70;99.90
2565;DHT22;1292;48.020;7.822;2023-06-10T20:31:19;24.60;99.90
2565;DHT22;1292;48.020;7.822;2023-06-10T20:33:46;24.60;99.90
2565;DHT22;1292;48.020;7.822;2023-06-10T20:36:13;24.50;99.90
2565;DHT22;1292;48.020;7.822;2023-06-10T20:38:41;24.40;99.90
2565;DHT22;1292;48.020;7.822;2023-06-10T20:41:09;24.30;99.90
2565;DHT22;1292;48.020;7.822;2023-06-10T20:43:36;24.10;99.90
2565;DHT22;1292;48.020;7.822;2023-06-10T20:46:02;24.10;99.90
2565;DHT22;1292;48.020;7.822;2023-06-10T20:48:29;23.90;99.90
2565;DHT22;1292;48.020;7.822;2023-06-10T20:50:56;23.90;99.90
2565;DHT22;1292;48.020;7.822;2023-06-10T20:53:23;23.80;99.90
2565;DHT22;1292;48.020;7.822;2023-06-10T20:55:50;23.70;99.90
2565;DHT22;1292;48.020;7.822;2023-06-10T20:58:18;23.50;99.90
2565;DHT22;1292;48.020;7.822;2023-06-10T21:00:45;23.50;99.90
2565;DHT22;1292;48.020;7.822;2023-06-10T21:03:12;23.40;99.90
2565;DHT22;1292;48.020;7.822;2023-06-10T21:05:39;23.50;99.90
2565;DHT22;1292;48.020;7.822;2023-06-10T21:08:05;23.60;99.90
2565;DHT22;1292;48.020;7.822;2023-06-10T21:10:33;23.60;99.90
2565;DHT22;1292;48.020;7.822;2023-06-10T21:12:59;23.60;99.90
2565;DHT22;1292;48.020;7.822;2023-06-10T21:15:28;23.60;99.90
2565;DHT22;1292;48.020;7.822;2023-06-10T21:17:55;23.70;99.90
2565;DHT22;1292;48.020;7.822;2023-06-10T21:20:22;23.70;99.90
2565;DHT22;1292;48.020;7.822;2023-06-10T21:22:49;23.60;99.90
2565;DHT22;1292;48.020;7.822;2023-06-10T21:25:16;23.70;99.90
2565;DHT22;1292;48.020;7.822;2023-06-10T21:27:43;23.60;99.90
2565;DHT22;1292;48.020;7.822;2023-06-10T21:30:10;23.60;99.90
2565;DHT22;1292;48.020;7.822;2023-06-10T21:32:38;23.60;99.90
2565;DHT22;1292;48.020;7.822;2023-06-10T21:35:05;23.50;99.90
2565;DHT22;1292;48.020;7.822;2023-06-10T21:37:32;23.50;99.90
2565;DHT22;1292;48.020;7.822;2023-06-10T21:39:59;23.50;99.90
